createdAt,value
2017-12-20T00:00:35.059Z,23.90
2017-12-20T00:03:02.654Z,27.20
2017-12-20T00:05:31.046Z,23.00
2017-12-20T00:07:58.850Z,30.05
2017-12-20T00:10:27.166Z,30.25
2017-12-20T00:12:54.766Z,28.52
2017-12-20T00:15:22.332Z,22.65
2017-12-20T00:17:49.905Z,24.48
2017-12-20T00:20:17.527Z,26.73
2017-12-20T00:22:45.700Z,30.40
2017-12-20T00:25:14.220Z,25.67
2017-12-20T00:27:41.792Z,27.65
2017-12-20T00:30:09.375Z,26.80
2017-12-20T00:32:38.434Z,23.15
2017-12-20T00:35:06.771Z,25.15
2017-12-20T00:37:34.366Z,26.83
2017-12-20T00:40:02.360Z,23.83
2017-12-20T00:42:29.980Z,23.98
2017-12-20T00:44:57.586Z,21.65
2017-12-20T00:47:25.934Z,23.92
2017-12-20T00:49:53.494Z,25.80
2017-12-20T00:52:24.004Z,25.45
2017-12-20T00:54:52.517Z,27.83
2017-12-20T00:57:20.106Z,31.17
2017-12-20T00:59:47.686Z,28.83
2017-12-20T01:02:15.268Z,34.33
2017-12-20T01:04:42.834Z,29.60
2017-12-20T01:07:10.409Z,29.58
2017-12-20T01:09:37.973Z,27.35
2017-12-20T01:12:05.550Z,24.05
2017-12-20T01:14:33.126Z,27.30
2017-12-20T01:17:00.690Z,25.08
2017-12-20T01:19:29.248Z,26.55
2017-12-20T01:21:56.987Z,25.88
2017-12-20T01:24:25.071Z,28.17
2017-12-20T01:26:52.638Z,24.70
2017-12-20T01:29:20.939Z,27.15
2017-12-20T01:31:48.522Z,24.35
2017-12-20T01:34:16.880Z,23.52
2017-12-20T01:36:44.448Z,25.37
2017-12-20T01:39:14.775Z,28.87
2017-12-20T01:41:42.350Z,25.02
2017-12-20T01:44:10.666Z,23.52
2017-12-20T01:46:39.027Z,24.90
2017-12-20T01:49:06.642Z,25.65
2017-12-20T01:51:36.184Z,30.73
2017-12-20T01:54:03.754Z,28.85
2017-12-20T01:56:31.505Z,26.48
2017-12-20T01:59:05.812Z,25.00
2017-12-20T02:01:33.566Z,27.98
2017-12-20T02:04:01.907Z,27.55
2017-12-20T02:06:29.493Z,24.42
2017-12-20T02:08:57.075Z,29.73
2017-12-20T02:11:24.651Z,23.62
2017-12-20T02:13:52.238Z,26.20
2017-12-20T02:16:20.361Z,27.50
2017-12-20T02:18:49.174Z,24.45
2017-12-20T02:21:16.773Z,23.58
2017-12-20T02:23:44.345Z,24.60
2017-12-20T02:26:11.949Z,26.73
2017-12-20T02:28:40.287Z,24.85
2017-12-20T02:31:07.858Z,23.83
2017-12-20T02:33:35.421Z,27.08
2017-12-20T02:36:02.984Z,26.58
2017-12-20T02:38:38.052Z,27.17
2017-12-20T02:41:06.443Z,23.90
2017-12-20T02:43:34.029Z,23.38
2017-12-20T02:46:02.378Z,26.48
2017-12-20T02:48:30.738Z,22.48
2017-12-20T02:50:59.083Z,27.60
2017-12-20T02:53:26.688Z,27.75
2017-12-20T02:55:54.282Z,23.80
2017-12-20T02:58:22.494Z,22.65
2017-12-20T03:00:50.841Z,23.35
2017-12-20T03:03:18.438Z,22.35
2017-12-20T03:05:46.019Z,24.10
2017-12-20T03:08:13.647Z,26.10
2017-12-20T03:10:41.298Z,24.08
2017-12-20T03:13:08.878Z,26.60
2017-12-20T03:15:36.421Z,22.40
2017-12-20T03:18:05.435Z,19.55
2017-12-20T03:20:34.390Z,28.52
2017-12-20T03:23:03.696Z,21.35
2017-12-20T03:25:33.135Z,18.33
2017-12-20T03:28:04.618Z,17.80
2017-12-20T03:30:35.056Z,18.92
2017-12-20T03:33:03.598Z,20.15
2017-12-20T03:35:31.159Z,19.52
2017-12-20T03:37:58.753Z,16.83
2017-12-20T03:40:26.322Z,15.73
2017-12-20T03:42:54.018Z,18.23
2017-12-20T03:45:22.339Z,17.55
2017-12-20T03:47:49.913Z,17.27
2017-12-20T03:50:18.242Z,16.87
2017-12-20T03:52:45.802Z,16.52
2017-12-20T03:55:13.433Z,19.87
2017-12-20T03:57:41.427Z,19.27
2017-12-20T04:00:09.014Z,20.12
2017-12-20T04:02:37.422Z,24.15
2017-12-20T04:05:04.970Z,18.33
2017-12-20T04:07:32.533Z,19.62
2017-12-20T04:10:00.866Z,19.08
2017-12-20T04:12:29.446Z,18.67
2017-12-20T04:14:57.020Z,16.02
2017-12-20T04:17:24.573Z,16.92
2017-12-20T04:19:52.153Z,21.85
2017-12-20T04:22:19.728Z,21.42
2017-12-20T04:24:47.305Z,22.13
2017-12-20T04:27:15.636Z,22.75
2017-12-20T04:29:43.214Z,20.80
2017-12-20T04:32:11.708Z,23.33
2017-12-20T04:34:39.282Z,21.05
2017-12-20T04:37:06.839Z,23.45
2017-12-20T04:39:35.177Z,24.48
2017-12-20T04:42:02.753Z,25.00
2017-12-20T04:44:30.340Z,26.58
2017-12-20T04:46:57.914Z,25.05
2017-12-20T04:49:25.472Z,19.95
2017-12-20T04:51:53.843Z,23.77
2017-12-20T04:54:21.444Z,24.50
2017-12-20T04:56:49.025Z,22.33
2017-12-20T04:59:16.647Z,23.05
2017-12-20T05:01:44.242Z,25.05
2017-12-20T05:04:12.613Z,22.58
2017-12-20T05:06:41.192Z,21.05
2017-12-20T05:09:10.342Z,23.08
2017-12-20T05:11:37.894Z,24.37
2017-12-20T05:14:05.498Z,23.80
2017-12-20T05:16:33.836Z,21.35
2017-12-20T05:19:01.750Z,27.40
2017-12-20T05:21:30.007Z,24.65
2017-12-20T05:23:57.576Z,22.45
2017-12-20T05:26:25.170Z,24.17
2017-12-20T05:28:52.774Z,25.20
2017-12-20T05:31:20.338Z,27.05
2017-12-20T05:33:47.914Z,22.87
2017-12-20T05:36:15.509Z,21.20
2017-12-20T05:38:43.847Z,22.77
2017-12-20T05:41:11.401Z,23.23
2017-12-20T05:43:39.734Z,25.65
2017-12-20T05:46:07.323Z,24.00
2017-12-20T05:48:34.894Z,24.65
2017-12-20T05:51:02.462Z,21.23
2017-12-20T05:53:30.802Z,21.23
2017-12-20T05:55:58.380Z,21.95
2017-12-20T05:58:25.961Z,21.92
2017-12-20T06:00:53.573Z,27.58
2017-12-20T06:03:21.268Z,23.10
2017-12-20T06:05:49.209Z,20.60
2017-12-20T06:08:16.788Z,25.70
2017-12-20T06:10:44.361Z,22.67
2017-12-20T06:13:11.942Z,19.33
2017-12-20T06:15:39.522Z,21.05
2017-12-20T06:18:07.142Z,19.52
2017-12-20T06:20:34.708Z,19.92
2017-12-20T06:23:02.276Z,18.05
2017-12-20T06:25:29.868Z,18.95
2017-12-20T06:27:57.426Z,19.30
2017-12-20T06:30:25.005Z,18.48
2017-12-20T06:32:52.596Z,19.45
2017-12-20T06:35:20.942Z,17.45
2017-12-20T06:37:48.520Z,18.98
2017-12-20T06:40:16.668Z,17.95
2017-12-20T06:42:44.249Z,19.30
2017-12-20T06:45:11.794Z,19.00
2017-12-20T06:47:39.362Z,19.87
2017-12-20T06:50:07.058Z,16.17
2017-12-20T06:52:34.607Z,15.15
2017-12-20T06:55:02.201Z,21.48
2017-12-20T06:57:29.770Z,19.35
2017-12-20T06:59:57.360Z,17.77
2017-12-20T07:02:25.692Z,20.35
2017-12-20T07:04:54.982Z,17.17
2017-12-20T07:07:22.537Z,13.88
2017-12-20T07:09:50.122Z,17.12
2017-12-20T07:12:18.504Z,15.55
2017-12-20T07:14:46.856Z,15.15
2017-12-20T07:17:15.408Z,18.00
2017-12-20T07:19:43.798Z,18.10
2017-12-20T07:22:11.377Z,15.98
2017-12-20T07:24:38.961Z,13.23
2017-12-20T07:27:07.135Z,12.95
2017-12-20T07:29:35.655Z,14.35
2017-12-20T07:32:05.072Z,17.60
2017-12-20T07:34:32.691Z,15.98
2017-12-20T07:37:01.021Z,15.63
2017-12-20T07:39:30.691Z,18.10
2017-12-20T07:41:58.264Z,16.33
2017-12-20T07:44:25.830Z,21.00
2017-12-20T07:46:53.425Z,20.90
2017-12-20T07:49:21.793Z,22.08
2017-12-20T07:51:49.379Z,23.62
2017-12-20T07:54:17.702Z,20.55
2017-12-20T07:56:46.042Z,20.40
2017-12-20T07:59:13.650Z,16.85
2017-12-20T08:01:41.245Z,14.25
2017-12-20T08:04:08.935Z,18.05
2017-12-20T08:06:36.528Z,19.87
2017-12-20T08:09:04.935Z,16.45
2017-12-20T08:11:32.531Z,15.70
2017-12-20T08:20:46.210Z,17.10
2017-12-20T08:23:14.380Z,16.95
2017-12-20T08:25:41.974Z,16.77
2017-12-20T08:28:09.648Z,16.90
2017-12-20T08:30:37.234Z,15.75
2017-12-20T08:33:05.621Z,12.90
2017-12-20T08:35:33.985Z,18.20
2017-12-20T08:38:01.560Z,18.60
2017-12-20T08:40:29.150Z,14.13
2017-12-20T08:42:57.496Z,16.05
2017-12-20T08:45:25.822Z,15.38
2017-12-20T08:47:53.458Z,17.85
2017-12-20T08:50:21.042Z,13.88
2017-12-20T08:52:49.451Z,15.88
2017-12-20T08:55:17.794Z,13.13
2017-12-20T08:57:45.578Z,13.65
2017-12-20T09:00:13.931Z,15.68
2017-12-20T09:02:41.560Z,14.65
2017-12-20T09:05:09.933Z,16.23
2017-12-20T09:07:37.528Z,22.05
2017-12-20T09:10:08.338Z,14.05
2017-12-20T09:12:35.939Z,16.37
2017-12-20T09:15:04.270Z,15.65
2017-12-20T09:17:32.411Z,14.95
2017-12-20T09:19:59.991Z,12.73
2017-12-20T09:22:27.607Z,12.52
2017-12-20T09:24:55.220Z,15.93
2017-12-20T09:27:23.549Z,15.15
2017-12-20T09:29:51.179Z,13.85
2017-12-20T09:32:18.801Z,14.27
2017-12-20T09:34:48.390Z,15.20
2017-12-20T09:37:17.273Z,12.73
2017-12-20T09:39:46.173Z,11.02
2017-12-20T09:42:13.776Z,15.18
2017-12-20T09:44:42.834Z,13.68
2017-12-20T09:47:11.314Z,12.93
2017-12-20T09:49:38.878Z,14.48
2017-12-20T09:52:07.599Z,13.18
2017-12-20T09:54:35.957Z,15.38
2017-12-20T09:57:03.573Z,12.70
2017-12-20T09:59:31.933Z,13.27
2017-12-20T10:01:59.548Z,13.32
2017-12-20T10:04:28.705Z,16.20
2017-12-20T10:06:56.338Z,12.85
2017-12-20T10:09:24.695Z,12.63
2017-12-20T10:11:53.622Z,14.27
2017-12-20T10:14:21.253Z,12.48
2017-12-20T10:16:48.835Z,11.88
2017-12-20T10:19:16.487Z,13.30
2017-12-20T10:21:44.042Z,13.95
2017-12-20T10:24:11.630Z,17.60
2017-12-20T10:26:39.263Z,17.60
2017-12-20T10:29:07.823Z,14.55
2017-12-20T10:31:35.573Z,15.50
2017-12-20T10:34:03.291Z,13.55
2017-12-20T10:36:30.918Z,10.27
2017-12-20T10:38:58.518Z,16.25
2017-12-20T10:41:26.187Z,10.18
2017-12-20T10:43:53.766Z,11.05
2017-12-20T10:46:21.408Z,12.02
2017-12-20T10:48:49.680Z,10.93
2017-12-20T10:51:19.819Z,9.88
2017-12-20T10:53:47.467Z,12.27
2017-12-20T10:56:16.239Z,13.55
2017-12-20T10:58:44.043Z,9.80
2017-12-20T11:01:11.653Z,10.07
2017-12-20T11:03:39.202Z,9.00
2017-12-20T11:06:06.805Z,10.52
2017-12-20T11:08:35.628Z,8.10
2017-12-20T11:11:03.182Z,10.75
2017-12-20T11:13:30.763Z,13.20
2017-12-20T11:15:58.454Z,9.90
2017-12-20T11:18:26.057Z,8.88
2017-12-20T11:20:53.656Z,12.23
2017-12-20T11:23:21.267Z,10.52
2017-12-20T11:25:48.863Z,8.00
2017-12-20T11:28:16.469Z,10.18
2017-12-20T11:30:55.078Z,8.07
2017-12-20T11:33:22.936Z,8.32
2017-12-20T11:35:54.609Z,9.30
2017-12-20T11:38:23.034Z,10.80
2017-12-20T11:40:50.628Z,10.93
2017-12-20T11:43:22.041Z,8.70
2017-12-20T11:45:53.114Z,10.30
2017-12-20T11:48:20.850Z,10.95
2017-12-20T11:50:51.776Z,14.90
2017-12-20T11:53:20.547Z,10.85
2017-12-20T11:55:52.021Z,9.60
2017-12-20T12:01:03.852Z,8.30
2017-12-20T12:03:33.435Z,8.82
2017-12-20T12:06:03.038Z,8.18
2017-12-20T12:08:32.342Z,8.10
2017-12-20T12:11:06.812Z,9.98
2017-12-20T12:13:36.706Z,12.70
2017-12-20T12:16:04.792Z,14.30
2017-12-20T12:18:33.095Z,11.82
2017-12-20T12:21:02.917Z,11.48
2017-12-20T12:23:32.402Z,10.48
2017-12-20T12:26:00.822Z,10.90
2017-12-20T12:28:29.403Z,10.02
2017-12-20T12:30:57.449Z,10.98
2017-12-20T12:33:26.250Z,11.82
2017-12-20T12:35:54.505Z,11.60
2017-12-20T12:38:22.676Z,11.45
2017-12-20T12:40:50.491Z,13.18
2017-12-20T12:43:19.342Z,8.82
2017-12-20T12:45:50.380Z,9.10
2017-12-20T12:48:19.071Z,8.27
2017-12-20T12:51:05.985Z,9.82
2017-12-20T12:53:42.559Z,9.48
2017-12-20T12:56:10.660Z,10.57
2017-12-20T12:59:00.356Z,9.50
2017-12-20T13:01:33.600Z,10.50
2017-12-20T13:04:06.662Z,9.50
2017-12-20T13:06:37.414Z,8.63
2017-12-20T13:09:08.069Z,8.98
2017-12-20T13:18:31.091Z,13.07
2017-12-20T13:21:19.747Z,11.68
2017-12-20T13:26:46.209Z,12.40
2017-12-20T13:29:14.368Z,10.55
2017-12-20T13:31:46.040Z,11.15
2017-12-20T13:34:14.131Z,11.55
2017-12-20T13:36:42.368Z,11.82
2017-12-20T13:39:10.388Z,11.12
2017-12-20T13:41:38.965Z,11.23
2017-12-20T13:44:06.730Z,11.98
2017-12-20T13:46:34.782Z,10.32
2017-12-20T13:49:11.225Z,12.90
2017-12-20T13:51:39.292Z,10.20
2017-12-20T13:54:07.691Z,10.90
2017-12-20T13:56:36.161Z,10.10
2017-12-20T13:59:05.302Z,12.80
2017-12-20T14:01:33.607Z,12.88
2017-12-20T14:04:02.698Z,15.90
2017-12-20T14:06:30.807Z,13.95
2017-12-20T14:08:58.994Z,16.10
2017-12-20T14:11:28.691Z,15.00
2017-12-20T14:14:00.480Z,14.82
2017-12-20T14:16:32.754Z,17.10
2017-12-20T14:19:03.003Z,18.35
2017-12-20T14:21:32.594Z,17.42
2017-12-20T14:24:00.532Z,15.35
2017-12-20T14:26:28.834Z,14.27
2017-12-20T14:28:57.517Z,15.18
2017-12-20T14:31:25.606Z,16.65
2017-12-20T14:33:53.615Z,16.17
2017-12-20T14:36:21.842Z,18.33
2017-12-20T14:38:50.990Z,21.00
2017-12-20T14:41:20.116Z,17.35
2017-12-20T14:43:48.202Z,20.55
2017-12-20T14:46:18.519Z,18.23
2017-12-20T14:48:46.567Z,17.60
2017-12-20T14:51:14.666Z,17.65
2017-12-20T14:53:45.593Z,17.75
2017-12-20T14:56:13.878Z,17.30
2017-12-20T14:58:42.692Z,17.58
2017-12-20T15:01:11.904Z,16.75
2017-12-20T15:38:02.282Z,35.35
2017-12-20T15:40:29.958Z,60.00
2017-12-20T15:42:58.342Z,55.08
2017-12-20T15:45:25.984Z,148.95
2017-12-20T15:47:54.876Z,85.00
2017-12-20T15:50:22.488Z,128.75
2017-12-20T15:52:50.177Z,88.95
2017-12-20T15:55:21.027Z,94.00
2017-12-20T15:57:55.402Z,53.00
2017-12-20T16:00:31.155Z,49.22
2017-12-20T16:03:05.247Z,57.67
2017-12-20T16:05:37.068Z,67.35
2017-12-20T16:08:06.586Z,94.07
2017-12-20T16:10:41.945Z,58.72
2017-12-20T16:13:13.272Z,49.05
2017-12-20T16:15:47.128Z,53.83
2017-12-20T16:18:18.787Z,71.12
2017-12-20T16:20:51.258Z,40.60
2017-12-20T16:23:31.281Z,38.72
2017-12-20T16:26:02.812Z,29.73
2017-12-20T16:28:32.736Z,27.45
2017-12-20T16:31:10.309Z,38.00
2017-12-20T16:33:41.360Z,35.22
2017-12-20T16:36:08.955Z,27.58
2017-12-20T16:38:36.598Z,28.98
2017-12-20T16:41:04.232Z,28.48
2017-12-20T16:43:32.727Z,26.05
2017-12-20T16:46:01.085Z,31.12
2017-12-20T16:51:04.640Z,28.75
2017-12-20T16:53:41.994Z,28.98
2017-12-20T16:56:10.384Z,29.15
2017-12-20T16:58:38.731Z,26.10
2017-12-20T17:01:06.295Z,41.13
2017-12-20T17:03:35.797Z,29.70
2017-12-20T17:06:03.380Z,33.28
2017-12-20T17:08:31.333Z,27.08
2017-12-20T17:11:00.943Z,29.50
2017-12-20T17:13:28.537Z,33.42
2017-12-20T17:15:57.231Z,32.25
2017-12-20T17:18:25.615Z,34.88
2017-12-20T17:20:53.186Z,67.47
2017-12-20T17:23:20.764Z,60.35
2017-12-20T17:25:48.354Z,33.20
2017-12-20T17:28:15.927Z,37.95
2017-12-20T17:30:44.269Z,49.78
2017-12-20T17:33:11.879Z,29.67
2017-12-20T17:35:52.084Z,32.50
2017-12-20T17:38:19.715Z,33.05
2017-12-20T17:40:47.371Z,49.22
2017-12-20T17:43:14.984Z,56.37
2017-12-20T17:45:42.600Z,40.70
2017-12-20T17:48:10.183Z,45.17
2017-12-20T17:50:39.867Z,41.65
2017-12-20T17:53:24.990Z,38.42
2017-12-20T17:56:01.546Z,40.30
2017-12-20T17:58:35.292Z,34.40
2017-12-20T18:01:11.605Z,36.80
2017-12-20T18:03:57.787Z,35.80
2017-12-20T18:06:42.553Z,37.45
2017-12-20T18:09:14.595Z,38.33
2017-12-20T18:11:43.234Z,39.15
2017-12-20T18:14:16.608Z,40.50
2017-12-20T18:16:44.290Z,44.45
2017-12-20T18:19:17.130Z,40.55
2017-12-20T18:21:45.900Z,42.40
2017-12-20T18:24:14.288Z,43.00
2017-12-20T18:26:42.678Z,39.33
2017-12-20T18:57:05.734Z,41.83
2017-12-20T19:05:38.364Z,41.47
2017-12-20T19:08:17.790Z,39.58
2017-12-20T19:10:52.432Z,35.80
2017-12-20T19:13:29.396Z,38.78
2017-12-20T19:16:00.027Z,36.88
2017-12-20T19:18:40.054Z,50.58
2017-12-20T19:24:03.055Z,43.40
2017-12-20T19:26:32.953Z,57.20
2017-12-20T19:29:00.953Z,61.13
2017-12-20T19:31:28.776Z,52.10
2017-12-20T19:33:57.035Z,47.20
2017-12-20T19:36:38.000Z,48.70
2017-12-20T19:39:08.782Z,44.58
2017-12-20T19:41:42.041Z,42.17
2017-12-20T19:44:23.177Z,39.58
2017-12-20T19:47:02.513Z,41.47
2017-12-20T19:49:32.848Z,40.50
2017-12-20T19:52:08.201Z,35.47
2017-12-20T19:57:34.645Z,41.78
2017-12-20T20:00:04.068Z,42.97
2017-12-20T20:02:36.173Z,40.17
2017-12-20T20:05:06.265Z,40.85
2017-12-20T20:07:37.435Z,43.42
2017-12-20T21:07:21.983Z,45.45
2017-12-20T21:26:51.430Z,45.12
2017-12-20T21:29:20.776Z,47.50
2017-12-20T21:31:52.034Z,68.32
2017-12-20T21:34:26.121Z,45.88
2017-12-20T21:36:57.917Z,50.60
2017-12-20T21:39:30.857Z,40.78
2017-12-20T21:42:16.701Z,45.28
2017-12-20T21:44:46.575Z,43.65
2017-12-20T21:47:17.766Z,48.80
2017-12-20T21:49:46.695Z,42.80
2017-12-20T21:52:17.027Z,46.75
2017-12-20T21:54:46.880Z,43.60
2017-12-20T21:57:18.174Z,44.53
2017-12-20T21:59:47.683Z,52.10
2017-12-20T22:02:16.595Z,50.03
2017-12-20T22:04:48.730Z,47.88
2017-12-20T22:07:16.779Z,46.17
2017-12-20T22:09:47.119Z,49.25
2017-12-20T22:12:17.324Z,47.50
2017-12-20T22:14:48.063Z,51.70
2017-12-20T22:20:28.777Z,44.78
2017-12-20T22:25:53.510Z,54.88
2017-12-20T22:31:45.624Z,78.85
2017-12-20T22:36:58.713Z,58.65
2017-12-20T22:39:26.706Z,60.25
2017-12-20T22:41:56.353Z,53.60
2017-12-20T22:44:24.089Z,56.22
2017-12-20T22:46:54.764Z,51.37
2017-12-20T22:49:25.794Z,43.78
2017-12-20T22:51:55.428Z,51.30
2017-12-20T22:54:27.907Z,49.42
2017-12-20T22:57:48.004Z,47.22
2017-12-20T23:00:40.476Z,45.20
2017-12-20T23:03:09.896Z,49.97
2017-12-20T23:08:15.956Z,51.67
2017-12-20T23:16:31.890Z,56.63
2017-12-20T23:18:59.586Z,56.30
2017-12-20T23:21:27.306Z,63.60
2017-12-20T23:23:54.931Z,56.03
2017-12-20T23:26:22.550Z,51.35
2017-12-20T23:28:50.220Z,54.85
2017-12-20T23:31:17.837Z,50.65
2017-12-20T23:33:46.283Z,57.53
2017-12-20T23:36:13.907Z,53.78
2017-12-20T23:38:41.555Z,52.00
2017-12-20T23:41:09.261Z,63.00
2017-12-20T23:43:36.894Z,55.78
2017-12-20T23:46:04.602Z,60.83
2017-12-20T23:48:32.268Z,54.88
2017-12-20T23:50:59.926Z,65.57
2017-12-20T23:53:27.901Z,56.28
2017-12-20T23:55:55.538Z,53.35
2017-12-20T23:58:23.204Z,54.15
